Alta Floresta, Brazil
Current Conditions -  °F | °C
As of 2:00 PM on Friday 31 Oct 2014 (Local Time) from SBAT Reporting Station
Scattered Clouds Scattered Clouds  
Wind Chill: 91°   Ceiling: Unl
Heat Index: 98°   Visibility: 6mi
Dew Point: 72°   Wind: 6mph
Humidity: 52%   Direction: 110°ESE
Pressure: 29.83"   Gusts: NA
Location:  9.9°S, 55.91°W
Report Text: SBAT 311700Z 11005KT 9999 SCT035 FEW040TCU 33/22 Q1010
Loading
Personal Weather Stations






























Interactive Weather Map
Tropical Storm Tracking
New forecast layout! Learn more

10-Day Weather Forecast

Advertisements
Track Severe Weather on mobile